createdAt,value
2023-04-03T00:00:01.519Z,26.87
2023-04-03T00:01:01.548Z,26.84
2023-04-03T00:02:01.630Z,26.81
2023-04-03T00:03:01.551Z,26.80
2023-04-03T00:04:01.523Z,26.79
2023-04-03T00:05:01.483Z,26.76
2023-04-03T00:06:01.512Z,26.74
2023-04-03T00:07:01.485Z,26.73
2023-04-03T00:08:01.488Z,26.73
2023-04-03T00:09:01.455Z,26.72
2023-04-03T00:10:01.470Z,26.73
2023-04-03T00:11:01.464Z,26.73
2023-04-03T00:12:01.530Z,26.72
2023-04-03T00:13:01.582Z,26.70
2023-04-03T00:14:01.623Z,26.70
2023-04-03T00:15:01.737Z,26.65
2023-04-03T00:16:01.773Z,26.63
2023-04-03T00:17:01.844Z,26.62
2023-04-03T00:18:01.934Z,26.61
2023-04-03T00:19:01.910Z,26.62
2023-04-03T00:20:01.995Z,26.62
2023-04-03T00:21:02.049Z,26.61
2023-04-03T00:22:02.085Z,26.58
2023-04-03T00:23:02.169Z,26.54
2023-04-03T00:24:02.224Z,26.55
2023-04-03T00:25:02.302Z,26.55
2023-04-03T00:26:02.336Z,26.55
2023-04-03T00:27:02.391Z,26.55
2023-04-03T00:28:02.471Z,26.56
2023-04-03T00:29:02.517Z,26.52
2023-04-03T00:30:02.586Z,26.52
2023-04-03T00:31:02.704Z,26.51
2023-04-03T00:32:02.684Z,26.52
2023-04-03T00:33:02.797Z,26.49
2023-04-03T00:34:02.784Z,26.50
2023-04-03T00:35:02.850Z,26.49
2023-04-03T00:36:02.981Z,26.47
2023-04-03T00:37:03.071Z,26.45
2023-04-03T00:38:03.009Z,26.44
2023-04-03T00:39:03.712Z,26.45
2023-04-03T00:40:03.127Z,26.42
2023-04-03T00:41:03.181Z,26.40
2023-04-03T00:42:03.234Z,26.41
2023-04-03T00:43:03.405Z,26.42
2023-04-03T00:44:03.360Z,26.41
2023-04-03T00:45:03.431Z,26.41
2023-04-03T00:46:03.517Z,26.40
2023-04-03T00:47:03.531Z,26.38
2023-04-03T00:48:03.660Z,26.39
2023-04-03T00:49:03.668Z,26.37
2023-04-03T00:50:03.737Z,26.38
2023-04-03T00:51:03.759Z,26.38
2023-04-03T00:52:03.835Z,26.40
2023-04-03T00:53:03.896Z,26.37
2023-04-03T00:54:03.941Z,26.36
2023-04-03T00:55:03.994Z,26.35
2023-04-03T00:56:04.053Z,26.35
2023-04-03T00:57:04.161Z,26.36
2023-04-03T00:58:04.178Z,26.35
2023-04-03T00:59:04.254Z,26.34
2023-04-03T01:00:04.291Z,26.35
2023-04-03T01:01:04.329Z,26.36
2023-04-03T01:02:04.504Z,26.33
2023-04-03T01:03:04.532Z,26.30
2023-04-03T01:04:04.520Z,26.29
2023-04-03T01:05:04.594Z,26.29
2023-04-03T01:06:04.653Z,26.28
2023-04-03T01:07:04.721Z,26.28
2023-04-03T01:08:04.773Z,26.28
2023-04-03T01:09:04.826Z,26.29
2023-04-03T01:10:04.945Z,26.28
2023-04-03T01:11:04.928Z,26.29
2023-04-03T01:12:04.988Z,26.27
2023-04-03T01:13:05.062Z,26.26
2023-04-03T01:14:05.105Z,26.25
2023-04-03T01:15:05.275Z,26.25
2023-04-03T01:16:05.276Z,26.25
2023-04-03T01:17:05.286Z,26.24
2023-04-03T01:18:05.430Z,26.20
2023-04-03T01:19:05.405Z,26.22
2023-04-03T01:20:05.490Z,26.20
2023-04-03T01:21:05.521Z,26.18
2023-04-03T01:22:05.609Z,26.17
2023-04-03T01:23:05.648Z,26.18
2023-04-03T01:24:05.733Z,26.18
2023-04-03T01:25:05.738Z,26.18
2023-04-03T01:26:05.802Z,26.18
2023-04-03T01:27:05.864Z,26.16
2023-04-03T01:28:05.955Z,26.15
2023-04-03T01:29:05.997Z,26.13
2023-04-03T01:30:06.068Z,26.12
2023-04-03T01:31:06.190Z,26.12
2023-04-03T01:32:06.163Z,26.11
2023-04-03T01:33:06.314Z,26.09
2023-04-03T01:34:06.314Z,26.10
2023-04-03T01:35:06.361Z,26.08
2023-04-03T01:36:06.467Z,26.08
2023-04-03T01:37:06.462Z,26.06
2023-04-03T01:38:06.518Z,26.04
2023-04-03T01:39:06.569Z,26.03
2023-04-03T01:40:06.635Z,26.03
2023-04-03T01:41:06.682Z,26.01
2023-04-03T01:42:06.752Z,26.00
2023-04-03T01:43:06.800Z,25.99
2023-04-03T01:44:06.858Z,25.98
2023-04-03T01:45:06.889Z,25.99
2023-04-03T01:46:07.026Z,25.97
2023-04-03T01:47:07.032Z,25.95
2023-04-03T01:48:07.126Z,25.97
2023-04-03T01:49:07.127Z,25.98
2023-04-03T01:50:07.204Z,25.98
2023-04-03T01:51:07.247Z,25.98
2023-04-03T01:52:07.326Z,25.96
2023-04-03T01:53:07.347Z,25.93
2023-04-03T01:54:07.411Z,25.88
2023-04-03T01:55:07.441Z,25.86
2023-04-03T01:56:07.507Z,25.82
2023-04-03T01:57:07.560Z,25.75
2023-04-03T01:58:07.570Z,25.74
2023-04-03T01:59:07.601Z,25.69
2023-04-03T02:00:07.655Z,25.61
2023-04-03T02:01:07.770Z,25.57
2023-04-03T02:02:07.700Z,25.52
2023-04-03T02:03:07.844Z,25.49
2023-04-03T02:04:07.845Z,25.41
2023-04-03T02:05:07.793Z,25.37
2023-04-03T02:06:07.832Z,25.33
2023-04-03T02:07:07.828Z,25.28
2023-04-03T02:08:07.879Z,25.24
2023-04-03T02:09:07.868Z,25.21
2023-04-03T02:10:07.878Z,25.21
2023-04-03T02:11:07.889Z,25.19
2023-04-03T02:12:07.887Z,25.14
2023-04-03T02:13:07.907Z,25.10
2023-04-03T02:14:07.932Z,25.09
2023-04-03T02:15:07.921Z,25.06
2023-04-03T02:16:07.971Z,25.02
2023-04-03T02:17:07.951Z,25.02
2023-04-03T02:18:08.044Z,25.00
2023-04-03T02:19:07.951Z,24.95
2023-04-03T02:20:07.965Z,24.96
2023-04-03T02:21:07.953Z,24.93
2023-04-03T02:22:07.950Z,24.94
2023-04-03T02:23:07.923Z,24.91
2023-04-03T02:24:07.932Z,24.87
2023-04-03T02:25:07.947Z,24.88
2023-04-03T02:26:07.922Z,24.86
2023-04-03T02:27:07.927Z,24.86
2023-04-03T02:28:07.904Z,24.84
2023-04-03T02:29:07.916Z,24.85
2023-04-03T02:30:07.930Z,24.81
2023-04-03T02:31:07.959Z,24.82
2023-04-03T02:32:07.918Z,24.81
2023-04-03T02:33:07.987Z,24.80
2023-04-03T02:34:07.912Z,24.79
2023-04-03T02:35:07.888Z,24.77
2023-04-03T02:36:07.928Z,24.72
2023-04-03T02:37:07.903Z,24.71
2023-04-03T02:38:07.923Z,24.68
2023-04-03T02:39:07.943Z,24.70
2023-04-03T02:40:07.979Z,24.68
2023-04-03T02:41:07.982Z,24.67
2023-04-03T02:42:08.036Z,24.66
2023-04-03T02:43:08.089Z,24.62
2023-04-03T02:44:08.145Z,24.63
2023-04-03T02:45:08.201Z,24.62
2023-04-03T02:46:08.322Z,24.61
2023-04-03T02:47:08.310Z,24.59
2023-04-03T02:48:08.397Z,24.57
2023-04-03T02:49:08.399Z,24.56
2023-04-03T02:50:08.443Z,24.52
2023-04-03T02:51:08.488Z,24.52
2023-04-03T02:52:08.532Z,24.50
2023-04-03T02:53:08.569Z,24.50
2023-04-03T02:54:08.619Z,24.46
2023-04-03T02:55:08.667Z,24.45
2023-04-03T02:56:08.709Z,24.42
2023-04-03T02:57:08.805Z,24.41
2023-04-03T02:58:09.770Z,24.38
2023-04-03T02:59:08.911Z,24.39
2023-04-03T03:00:08.987Z,24.37
2023-04-03T03:01:09.038Z,24.39
2023-04-03T03:02:09.022Z,24.34
2023-04-03T03:03:09.052Z,24.37
2023-04-03T03:04:09.108Z,24.36
2023-04-03T03:05:09.233Z,24.36
2023-04-03T03:06:09.241Z,24.34
2023-04-03T03:07:09.309Z,24.32
2023-04-03T03:08:09.401Z,24.30
2023-04-03T03:09:09.432Z,24.28
2023-04-03T03:10:09.514Z,24.28
2023-04-03T03:11:09.549Z,24.25
2023-04-03T03:12:09.608Z,24.23
2023-04-03T03:13:09.714Z,24.22
2023-04-03T03:14:09.740Z,24.21
2023-04-03T03:15:09.794Z,24.22
2023-04-03T03:16:09.916Z,24.18
2023-04-03T03:17:09.926Z,24.16
2023-04-03T03:18:09.971Z,24.15
2023-04-03T03:19:10.025Z,24.14
2023-04-03T03:20:10.117Z,24.14
2023-04-03T03:21:10.164Z,24.13
2023-04-03T03:22:10.201Z,24.09
2023-04-03T03:23:10.280Z,24.09
2023-04-03T03:24:10.354Z,24.09
2023-04-03T03:25:10.398Z,24.08
2023-04-03T03:26:10.465Z,24.08
2023-04-03T03:27:10.530Z,24.06
2023-04-03T03:28:10.552Z,24.05
2023-04-03T03:29:10.624Z,24.04
2023-04-03T03:30:10.691Z,24.04
2023-04-03T03:31:10.756Z,24.02
2023-04-03T03:32:10.806Z,24.01
2023-04-03T03:33:10.882Z,24.02
2023-04-03T03:34:10.915Z,23.98
2023-04-03T03:35:10.969Z,23.98
2023-04-03T03:36:11.087Z,23.97
2023-04-03T03:37:11.063Z,23.96
2023-04-03T03:38:11.169Z,23.96
2023-04-03T03:39:11.214Z,23.96
2023-04-03T03:40:11.235Z,23.94
2023-04-03T03:41:11.362Z,23.93
2023-04-03T03:42:11.375Z,23.93
2023-04-03T03:43:11.434Z,23.91
2023-04-03T03:44:11.472Z,23.90
2023-04-03T03:45:11.567Z,23.90
2023-04-03T03:46:11.604Z,23.87
2023-04-03T03:47:11.667Z,23.84
2023-04-03T03:48:11.693Z,23.86
2023-04-03T03:49:11.754Z,23.83
2023-04-03T03:50:11.834Z,23.82
2023-04-03T03:51:11.866Z,23.84
2023-04-03T03:52:11.888Z,23.82
2023-04-03T03:53:11.937Z,23.80
2023-04-03T03:54:12.033Z,23.81
2023-04-03T03:55:12.064Z,23.78
2023-04-03T03:56:12.133Z,23.78
2023-04-03T03:57:12.221Z,23.78
2023-04-03T03:58:12.233Z,23.74
2023-04-03T03:59:12.260Z,23.73
2023-04-03T04:00:12.301Z,23.72
2023-04-03T04:01:12.386Z,23.72
2023-04-03T04:02:12.503Z,23.71
2023-04-03T04:03:12.519Z,23.73
2023-04-03T04:04:12.544Z,23.71
2023-04-03T04:05:12.572Z,23.71
2023-04-03T04:06:12.655Z,23.70
2023-04-03T04:07:12.695Z,23.69
2023-04-03T04:08:12.722Z,23.65
2023-04-03T04:09:12.785Z,23.64
2023-04-03T04:10:12.840Z,23.66
2023-04-03T04:11:12.880Z,23.64
2023-04-03T04:12:12.946Z,23.65
2023-04-03T04:13:12.974Z,23.61
2023-04-03T04:14:13.009Z,23.60
2023-04-03T04:15:13.074Z,23.61
2023-04-03T04:16:13.160Z,23.60
2023-04-03T04:17:13.304Z,23.58
2023-04-03T04:18:13.196Z,23.58
2023-04-03T04:19:13.251Z,23.58
2023-04-03T04:20:13.261Z,23.56
2023-04-03T04:21:13.335Z,23.57
2023-04-03T04:22:13.381Z,23.57
2023-04-03T04:23:13.432Z,23.56
2023-04-03T04:24:13.465Z,23.54
2023-04-03T04:25:13.521Z,23.53
2023-04-03T04:26:13.546Z,23.55
2023-04-03T04:27:13.590Z,23.54
2023-04-03T04:28:13.644Z,23.52
2023-04-03T04:29:13.697Z,23.52
2023-04-03T04:30:13.722Z,23.51
2023-04-03T04:31:13.822Z,23.50
2023-04-03T04:32:13.833Z,23.50
2023-04-03T04:33:13.866Z,23.51
2023-04-03T04:34:13.935Z,23.48
2023-04-03T04:35:16.653Z,23.50
2023-04-03T04:36:14.074Z,23.47
2023-04-03T04:37:13.976Z,23.50
2023-04-03T04:38:13.965Z,23.47
2023-04-03T04:39:13.934Z,23.46
2023-04-03T04:40:13.932Z,23.46
2023-04-03T04:41:13.919Z,23.45
2023-04-03T04:42:16.024Z,23.48
2023-04-03T04:43:13.911Z,23.45
2023-04-03T04:44:13.945Z,23.46
2023-04-03T04:45:13.930Z,23.46
2023-04-03T04:46:13.995Z,23.43
2023-04-03T04:47:13.917Z,23.45
2023-04-03T04:48:13.894Z,23.41
2023-04-03T04:49:13.873Z,23.43
2023-04-03T04:50:13.886Z,23.42
2023-04-03T04:51:13.902Z,23.43
2023-04-03T04:52:13.874Z,23.43
2023-04-03T04:53:13.849Z,23.42
2023-04-03T04:54:13.837Z,23.43
2023-04-03T04:55:13.864Z,23.42
2023-04-03T04:56:13.842Z,23.43
2023-04-03T04:57:13.859Z,23.41
2023-04-03T04:58:13.845Z,23.37
2023-04-03T04:59:13.800Z,23.38
2023-04-03T05:00:13.826Z,23.37
2023-04-03T05:01:20.918Z,23.38
2023-04-03T05:02:13.825Z,23.37
2023-04-03T05:03:13.782Z,23.37
2023-04-03T05:04:14.002Z,23.36
2023-04-03T05:05:13.866Z,23.35
2023-04-03T05:06:13.775Z,23.35
2023-04-03T05:07:13.758Z,23.34
2023-04-03T05:08:13.772Z,23.35
2023-04-03T05:09:13.769Z,23.35
2023-04-03T05:10:13.728Z,23.33
2023-04-03T05:11:13.753Z,23.33
2023-04-03T05:12:13.723Z,23.35
2023-04-03T05:13:13.730Z,23.36
2023-04-03T05:14:13.688Z,23.35
2023-04-03T05:15:13.723Z,23.35
2023-04-03T05:16:13.759Z,23.35
2023-04-03T05:17:13.671Z,23.33
2023-04-03T05:18:13.689Z,23.32
2023-04-03T05:19:13.699Z,23.31
2023-04-03T05:20:13.700Z,23.32
2023-04-03T05:21:13.727Z,23.30
2023-04-03T05:22:13.656Z,23.30
2023-04-03T05:23:13.651Z,23.32
2023-04-03T05:24:13.694Z,23.30
2023-04-03T05:25:13.824Z,23.30
2023-04-03T05:26:13.827Z,23.30
2023-04-03T05:27:13.904Z,23.29
2023-04-03T05:28:13.908Z,23.29
2023-04-03T05:29:14.052Z,23.29
2023-04-03T05:30:14.054Z,23.29
2023-04-03T05:31:14.188Z,23.28
2023-04-03T05:32:14.148Z,23.30
2023-04-03T05:33:14.235Z,23.30
2023-04-03T05:34:14.306Z,23.30
2023-04-03T05:35:14.409Z,23.29
2023-04-03T05:36:14.458Z,23.31
2023-04-03T05:37:14.541Z,23.32
2023-04-03T05:38:14.570Z,23.29
2023-04-03T05:39:14.622Z,23.29
2023-04-03T05:40:15.602Z,23.29
2023-04-03T05:41:14.727Z,23.29
2023-04-03T05:42:14.827Z,23.31
2023-04-03T05:43:14.877Z,23.29
2023-04-03T05:44:14.936Z,23.26
2023-04-03T05:45:15.010Z,23.25
2023-04-03T05:46:22.519Z,23.26
2023-04-03T05:47:15.029Z,23.26
2023-04-03T05:48:15.034Z,23.27
2023-04-03T05:49:15.038Z,23.25
2023-04-03T05:50:15.012Z,23.24
2023-04-03T05:51:15.021Z,23.24
2023-04-03T05:52:15.028Z,23.24
2023-04-03T05:53:14.991Z,23.25
2023-04-03T05:54:15.011Z,23.25
2023-04-03T05:55:14.973Z,23.22
2023-04-03T05:56:15.014Z,23.23
2023-04-03T05:57:14.977Z,23.22
2023-04-03T05:58:14.980Z,23.21
2023-04-03T05:59:14.968Z,23.20
2023-04-03T06:00:14.968Z,23.22
2023-04-03T06:01:14.955Z,23.22
2023-04-03T06:02:14.921Z,23.20
2023-04-03T06:03:15.097Z,23.22
2023-04-03T06:04:15.019Z,23.22
2023-04-03T06:05:14.941Z,23.21
2023-04-03T06:06:15.047Z,23.16
2023-04-03T06:07:15.096Z,23.17
2023-04-03T06:08:15.144Z,23.16
2023-04-03T06:09:15.205Z,23.15
2023-04-03T06:10:15.286Z,23.15
2023-04-03T06:11:15.348Z,23.16
2023-04-03T06:12:15.383Z,23.14
2023-04-03T06:13:15.459Z,23.14
2023-04-03T06:14:15.504Z,23.13
2023-04-03T06:15:15.592Z,23.11
2023-04-03T06:16:15.622Z,23.11
2023-04-03T06:17:15.795Z,23.10
2023-04-03T06:18:15.784Z,23.08
2023-04-03T06:19:15.833Z,23.08
2023-04-03T06:20:15.866Z,23.11
2023-04-03T06:21:15.915Z,23.11
2023-04-03T06:22:16.027Z,23.11
2023-04-03T06:23:16.074Z,23.10
2023-04-03T06:24:16.102Z,23.08
2023-04-03T06:25:16.164Z,23.11
2023-04-03T06:26:16.242Z,23.07
2023-04-03T06:27:16.332Z,23.05
2023-04-03T06:28:16.360Z,23.07
2023-04-03T06:29:16.427Z,23.06
2023-04-03T06:30:16.470Z,23.05
2023-04-03T06:31:16.578Z,23.03
2023-04-03T06:32:16.602Z,23.06
2023-04-03T06:33:16.678Z,23.03
2023-04-03T06:34:16.967Z,23.04
2023-04-03T06:35:16.794Z,23.07
2023-04-03T06:36:16.887Z,23.06
2023-04-03T06:37:16.936Z,23.05
2023-04-03T06:38:16.972Z,23.05
2023-04-03T06:39:17.016Z,23.07
2023-04-03T06:40:17.104Z,23.05
2023-04-03T06:41:17.178Z,23.05
2023-04-03T06:42:17.216Z,23.05
2023-04-03T06:43:17.281Z,23.07
2023-04-03T06:44:17.350Z,23.07
2023-04-03T06:45:17.397Z,23.06
2023-04-03T06:46:17.460Z,23.06
2023-04-03T06:47:17.506Z,23.08
2023-04-03T06:48:17.604Z,23.06
2023-04-03T06:49:17.665Z,23.08
2023-04-03T06:50:17.681Z,23.07
2023-04-03T06:51:17.808Z,23.08
2023-04-03T06:52:17.851Z,23.11
2023-04-03T06:53:17.893Z,23.11
2023-04-03T06:54:17.934Z,23.10
2023-04-03T06:55:18.029Z,23.13
2023-04-03T06:56:18.093Z,23.12
2023-04-03T06:57:18.171Z,23.11
2023-04-03T06:58:18.745Z,23.12
2023-04-03T06:59:18.271Z,23.13
2023-04-03T07:00:18.314Z,23.13
2023-04-03T07:01:18.455Z,23.13
2023-04-03T07:02:18.472Z,23.16
2023-04-03T07:03:18.568Z,23.16
2023-04-03T07:04:18.614Z,23.16
2023-04-03T07:05:18.637Z,23.15
2023-04-03T07:06:18.704Z,23.18
2023-04-03T07:07:18.781Z,23.16
2023-04-03T07:08:18.820Z,23.18
2023-04-03T07:09:18.845Z,23.18
2023-04-03T07:10:18.929Z,23.17
2023-04-03T07:11:19.002Z,23.17
2023-04-03T07:12:19.047Z,23.15
2023-04-03T07:13:19.118Z,23.14
2023-04-03T07:14:19.194Z,23.15
2023-04-03T07:15:19.253Z,23.15
2023-04-03T07:16:19.353Z,23.15
2023-04-03T07:17:19.366Z,23.15
2023-04-03T07:18:19.433Z,23.17
2023-04-03T07:19:19.539Z,23.17
2023-04-03T07:20:19.537Z,23.16
2023-04-03T07:21:19.611Z,23.17
2023-04-03T07:22:19.730Z,23.17
2023-04-03T07:23:19.816Z,23.19
2023-04-03T07:24:19.783Z,23.16
2023-04-03T07:25:19.866Z,23.16
2023-04-03T07:26:19.934Z,23.17
2023-04-03T07:27:20.013Z,23.15
2023-04-03T07:28:20.055Z,23.14
2023-04-03T07:29:20.128Z,23.14
2023-04-03T07:30:20.168Z,23.14
2023-04-03T07:31:20.248Z,23.16
2023-04-03T07:32:20.299Z,23.16
2023-04-03T07:33:20.347Z,23.16
2023-04-03T07:34:20.462Z,23.14
2023-04-03T07:35:20.479Z,23.14
2023-04-03T07:36:20.582Z,23.16
2023-04-03T07:37:20.629Z,23.15
2023-04-03T07:38:20.669Z,23.15
2023-04-03T07:39:20.730Z,23.14
2023-04-03T07:40:20.972Z,23.14
2023-04-03T07:41:20.874Z,23.13
2023-04-03T07:42:20.926Z,23.14
2023-04-03T07:43:20.967Z,23.13
2023-04-03T07:44:21.026Z,23.13
2023-04-03T07:45:21.082Z,23.14
2023-04-03T07:46:21.243Z,23.15
2023-04-03T07:47:21.237Z,23.14
2023-04-03T07:48:21.276Z,23.11
2023-04-03T07:49:21.356Z,23.14
2023-04-03T07:50:21.390Z,23.14
2023-04-03T07:51:21.468Z,23.12
2023-04-03T07:52:21.539Z,23.12
2023-04-03T07:53:21.612Z,23.11
2023-04-03T07:54:21.673Z,23.16
2023-04-03T07:55:21.720Z,23.15
2023-04-03T07:56:21.780Z,23.14
2023-04-03T07:57:21.939Z,23.16
2023-04-03T07:58:21.899Z,23.14
2023-04-03T07:59:22.012Z,23.12
2023-04-03T08:00:22.055Z,23.14
2023-04-03T08:01:22.091Z,23.15
2023-04-03T08:02:22.149Z,23.12
2023-04-03T08:03:22.405Z,23.15
2023-04-03T08:04:22.310Z,23.14
2023-04-03T08:05:22.310Z,23.14
2023-04-03T08:06:33.025Z,23.12
2023-04-03T08:07:23.456Z,23.13
2023-04-03T08:08:22.395Z,23.13
2023-04-03T08:09:22.350Z,23.12
2023-04-03T08:10:22.499Z,23.11
2023-04-03T08:11:22.355Z,23.11
2023-04-03T08:12:22.373Z,23.10
2023-04-03T08:13:22.354Z,23.11
2023-04-03T08:14:22.338Z,23.10
2023-04-03T08:15:22.372Z,23.10
2023-04-03T08:16:22.455Z,23.11
2023-04-03T08:17:22.484Z,23.11
2023-04-03T08:18:22.538Z,23.11
2023-04-03T08:19:26.440Z,23.09
2023-04-03T08:20:22.612Z,23.10
2023-04-03T08:21:22.599Z,23.11
2023-04-03T08:22:22.575Z,23.11
2023-04-03T08:23:22.643Z,23.12
2023-04-03T08:24:22.580Z,23.12
2023-04-03T08:25:22.536Z,23.14
2023-04-03T08:26:22.581Z,23.12
2023-04-03T08:27:22.612Z,23.12
2023-04-03T08:28:22.540Z,23.14
2023-04-03T08:29:22.573Z,23.14
2023-04-03T08:30:22.525Z,23.14
2023-04-03T08:31:22.663Z,23.13
2023-04-03T08:32:22.494Z,23.13
2023-04-03T08:33:22.505Z,23.13
2023-04-03T08:34:22.481Z,23.13
2023-04-03T08:35:22.473Z,23.13
2023-04-03T08:36:22.520Z,23.11
2023-04-03T08:37:22.466Z,23.11
2023-04-03T08:38:22.468Z,23.10
2023-04-03T08:39:22.632Z,23.12
2023-04-03T08:40:22.856Z,23.10
2023-04-03T08:41:22.737Z,23.09
2023-04-03T08:42:22.613Z,23.08
2023-04-03T08:43:22.609Z,23.06
2023-04-03T08:44:22.657Z,23.03
2023-04-03T08:45:22.723Z,23.05
2023-04-03T08:46:22.828Z,23.04
2023-04-03T08:47:22.859Z,23.02
2023-04-03T08:48:22.888Z,23.04
2023-04-03T08:49:22.951Z,23.01
2023-04-03T08:50:22.982Z,23.02
2023-04-03T08:51:23.043Z,23.03
2023-04-03T08:52:23.091Z,23.03
2023-04-03T08:53:23.142Z,23.04
2023-04-03T08:54:23.194Z,23.03
2023-04-03T08:55:23.330Z,23.03
2023-04-03T08:56:23.321Z,23.01
2023-04-03T08:57:23.412Z,23.01
2023-04-03T08:58:23.397Z,23.01
2023-04-03T08:59:23.475Z,23.00
2023-04-03T09:00:23.519Z,23.00
2023-04-03T09:01:23.588Z,22.96
2023-04-03T09:02:23.664Z,22.96
2023-04-03T09:03:23.801Z,22.98
2023-04-03T09:04:23.751Z,22.99
2023-04-03T09:05:24.198Z,22.98
2023-04-03T09:06:23.787Z,22.96
2023-04-03T09:07:23.846Z,22.96
2023-04-03T09:08:23.914Z,22.96
2023-04-03T09:09:23.948Z,22.98
2023-04-03T09:10:24.045Z,22.98
2023-04-03T09:11:24.126Z,22.98
2023-04-03T09:12:24.067Z,22.98
2023-04-03T09:13:24.145Z,23.01
2023-04-03T09:14:24.169Z,23.00
2023-04-03T09:15:35.592Z,23.02
2023-04-03T09:16:25.248Z,23.04
2023-04-03T09:17:24.243Z,23.04
2023-04-03T09:18:24.200Z,23.04
2023-04-03T09:19:24.243Z,23.05
2023-04-03T09:20:24.155Z,23.07
2023-04-03T09:21:24.175Z,23.06
2023-04-03T09:22:24.200Z,23.06
2023-04-03T09:23:24.145Z,23.09
2023-04-03T09:24:24.151Z,23.08
2023-04-03T09:25:24.121Z,23.06
2023-04-03T09:26:24.155Z,23.05
2023-04-03T09:27:24.357Z,23.08
2023-04-03T09:28:24.284Z,23.05
2023-04-03T09:29:24.302Z,23.05
2023-04-03T09:30:24.348Z,23.04
2023-04-03T09:31:24.464Z,23.02
2023-04-03T09:32:24.478Z,23.01
2023-04-03T09:33:24.495Z,23.03
2023-04-03T09:34:24.545Z,23.04
2023-04-03T09:35:29.926Z,23.04
2023-04-03T09:36:25.604Z,23.02
2023-04-03T09:37:24.555Z,23.03
2023-04-03T09:38:24.629Z,23.03
2023-04-03T09:39:24.596Z,23.03
2023-04-03T09:40:24.545Z,23.02
2023-04-03T09:41:24.565Z,23.01
2023-04-03T09:42:24.543Z,22.99
2023-04-03T09:43:24.654Z,23.02
2023-04-03T09:44:24.532Z,22.98
2023-04-03T09:45:24.540Z,23.01
2023-04-03T09:46:24.595Z,23.01
2023-04-03T09:47:24.619Z,22.98
2023-04-03T09:48:24.709Z,22.95
2023-04-03T09:49:24.685Z,22.93
2023-04-03T09:50:24.757Z,22.95
2023-04-03T09:51:24.808Z,22.94
2023-04-03T09:52:24.846Z,22.90
2023-04-03T09:53:24.923Z,22.90
2023-04-03T09:54:24.970Z,22.92
2023-04-03T09:55:24.980Z,22.90
2023-04-03T09:56:25.048Z,22.93
2023-04-03T09:57:25.112Z,22.89
2023-04-03T09:58:25.486Z,22.87
2023-04-03T09:59:25.282Z,22.85
2023-04-03T10:00:25.249Z,22.80
2023-04-03T10:01:25.363Z,22.79
2023-04-03T10:02:25.371Z,22.76
2023-04-03T10:03:25.421Z,22.75
2023-04-03T10:04:25.526Z,22.72
2023-04-03T10:05:25.572Z,22.67
2023-04-03T10:06:25.593Z,22.67
2023-04-03T10:07:25.666Z,22.71
2023-04-03T10:08:25.718Z,22.66
2023-04-03T10:09:25.752Z,22.63
2023-04-03T10:10:25.794Z,22.65
2023-04-03T10:11:25.865Z,22.59
2023-04-03T10:12:25.914Z,22.57
2023-04-03T10:13:26.007Z,22.54
2023-04-03T10:14:26.060Z,22.51
2023-04-03T10:15:26.193Z,22.47
2023-04-03T10:16:26.195Z,22.50
2023-04-03T10:17:26.221Z,22.48
2023-04-03T10:18:26.282Z,22.41
2023-04-03T10:19:26.334Z,22.41
2023-04-03T10:20:26.380Z,22.43
2023-04-03T10:21:27.708Z,22.44
2023-04-03T10:22:26.511Z,22.44
2023-04-03T10:23:26.532Z,22.40
2023-04-03T10:24:26.605Z,22.39
2023-04-03T10:25:26.686Z,22.37
2023-04-03T10:26:26.710Z,22.38
2023-04-03T10:27:26.798Z,22.34
2023-04-03T10:28:26.829Z,22.34
2023-04-03T10:29:26.859Z,22.33
2023-04-03T10:30:26.922Z,22.27
2023-04-03T10:31:27.101Z,22.22
2023-04-03T10:32:27.090Z,22.22
2023-04-03T10:33:27.147Z,22.18
2023-04-03T10:34:27.174Z,22.16
2023-04-03T10:35:27.200Z,22.18
2023-04-03T10:36:27.251Z,22.19
2023-04-03T10:37:27.353Z,22.17
2023-04-03T10:38:27.395Z,22.16
2023-04-03T10:39:27.498Z,22.12
2023-04-03T10:40:27.512Z,22.14
2023-04-03T10:41:27.565Z,22.11
2023-04-03T10:42:27.610Z,22.10
2023-04-03T10:43:27.700Z,22.08
2023-04-03T10:44:27.738Z,22.05
2023-04-03T10:45:27.785Z,22.06
2023-04-03T10:46:27.894Z,22.04
2023-04-03T10:47:28.155Z,22.02
2023-04-03T10:48:27.958Z,21.97
2023-04-03T10:49:28.038Z,21.97
2023-04-03T10:50:28.069Z,21.99
2023-04-03T10:51:28.121Z,21.94
2023-04-03T10:52:28.199Z,21.89
2023-04-03T10:53:28.240Z,21.89
2023-04-03T10:54:28.282Z,21.86
2023-04-03T10:55:28.367Z,21.93
2023-04-03T10:56:28.422Z,21.90
2023-04-03T10:57:28.495Z,21.87
2023-04-03T10:58:28.569Z,21.81
2023-04-03T10:59:28.606Z,21.81
2023-04-03T11:00:28.657Z,21.83
2023-04-03T11:01:28.760Z,21.81
2023-04-03T11:02:31.018Z,21.82
2023-04-03T11:03:28.960Z,21.82
2023-04-03T11:04:28.783Z,21.79
2023-04-03T11:05:28.775Z,21.75
2023-04-03T11:06:28.759Z,21.78
2023-04-03T11:07:28.762Z,21.73
2023-04-03T11:08:28.753Z,21.72
2023-04-03T11:09:28.743Z,21.75
2023-04-03T11:10:28.744Z,21.80
2023-04-03T11:11:28.738Z,21.75
2023-04-03T11:12:28.722Z,21.68
2023-04-03T11:13:28.748Z,21.68
2023-04-03T11:14:28.690Z,21.65
2023-04-03T11:15:28.685Z,21.64
2023-04-03T11:16:29.481Z,21.64
2023-04-03T11:17:28.743Z,21.65
2023-04-03T11:18:28.651Z,21.62
2023-04-03T11:19:28.748Z,21.61
2023-04-03T11:20:28.827Z,21.61
2023-04-03T11:21:28.648Z,21.58
2023-04-03T11:22:28.628Z,21.56
2023-04-03T11:23:35.612Z,21.59
2023-04-03T11:24:29.654Z,21.53
2023-04-03T11:25:28.633Z,21.52
2023-04-03T11:26:28.592Z,21.53
2023-04-03T11:27:28.598Z,21.52
2023-04-03T11:28:28.610Z,21.52
2023-04-03T11:29:35.491Z,21.50
2023-04-03T11:30:29.599Z,21.49
2023-04-03T11:31:28.571Z,21.48
2023-04-03T11:32:28.618Z,21.49
2023-04-03T11:33:28.583Z,21.47
2023-04-03T11:34:28.596Z,21.40
2023-04-03T11:35:28.630Z,21.45
2023-04-03T11:36:32.183Z,21.47
2023-04-03T11:37:29.566Z,21.48
2023-04-03T11:38:28.521Z,21.40
2023-04-03T11:39:28.518Z,21.42
2023-04-03T11:40:28.522Z,21.42
2023-04-03T11:41:28.545Z,21.40
2023-04-03T11:42:28.612Z,21.38
2023-04-03T11:43:28.502Z,21.38
2023-04-03T11:44:28.502Z,21.35
2023-04-03T11:45:28.483Z,21.32
2023-04-03T11:46:28.584Z,21.31
2023-04-03T11:47:28.646Z,21.32
2023-04-03T11:48:28.745Z,21.29
2023-04-03T11:49:28.778Z,21.31
2023-04-03T11:50:28.807Z,21.29
2023-04-03T11:51:28.949Z,21.28
2023-04-03T11:52:28.907Z,21.28
2023-04-03T11:53:28.965Z,21.29
2023-04-03T11:54:35.245Z,21.23
2023-04-03T11:55:30.020Z,21.21
2023-04-03T11:56:29.042Z,21.21
2023-04-03T11:57:29.058Z,21.17
2023-04-03T11:58:29.011Z,21.20
2023-04-03T11:59:28.993Z,21.18
2023-04-03T12:00:29.007Z,21.21
2023-04-03T12:01:28.976Z,21.13
2023-04-03T12:02:29.079Z,21.14
2023-04-03T12:03:29.083Z,21.14
2023-04-03T12:04:29.118Z,21.13
2023-04-03T12:05:29.120Z,21.11
2023-04-03T12:06:29.174Z,21.08
2023-04-03T12:07:29.352Z,21.08
2023-04-03T12:08:29.298Z,21.08
2023-04-03T12:09:29.354Z,21.08
2023-04-03T12:10:32.553Z,21.07
2023-04-03T12:11:29.442Z,21.03
2023-04-03T12:12:29.454Z,21.02
2023-04-03T12:13:29.426Z,21.03
2023-04-03T12:14:29.427Z,20.99
2023-04-03T12:15:29.500Z,20.99
2023-04-03T12:16:29.471Z,20.97
2023-04-03T12:17:29.392Z,21.02
2023-04-03T12:18:29.388Z,21.02
2023-04-03T12:19:41.278Z,20.97
2023-04-03T12:20:30.396Z,20.96
2023-04-03T12:21:29.356Z,20.93
2023-04-03T12:22:29.370Z,20.93
2023-04-03T12:23:29.448Z,20.97
2023-04-03T12:24:29.334Z,20.96
2023-04-03T12:25:29.332Z,20.92
2023-04-03T12:26:32.661Z,20.94
2023-04-03T12:27:30.313Z,20.92
2023-04-03T12:28:29.322Z,20.91
2023-04-03T12:29:29.324Z,20.90
2023-04-03T12:30:29.307Z,20.88
2023-04-03T12:31:29.330Z,20.88
2023-04-03T12:32:29.296Z,20.86
2023-04-03T12:33:29.319Z,20.84
2023-04-03T12:34:29.255Z,20.84
2023-04-03T12:35:29.341Z,20.82
2023-04-03T12:36:29.379Z,20.85
2023-04-03T12:37:29.420Z,20.81
2023-04-03T12:38:29.494Z,20.73
2023-04-03T12:39:29.645Z,20.77
2023-04-03T12:40:29.587Z,20.75
2023-04-03T12:41:29.668Z,20.73
2023-04-03T12:42:29.683Z,20.74
2023-04-03T12:43:29.715Z,20.73
2023-04-03T12:44:29.744Z,20.68
2023-04-03T12:45:29.821Z,20.68
2023-04-03T12:46:29.868Z,20.68
2023-04-03T12:47:29.864Z,20.68
2023-04-03T12:48:29.915Z,20.65
2023-04-03T12:49:29.935Z,20.65
2023-04-03T12:50:29.978Z,20.70
2023-04-03T12:51:30.012Z,20.66
2023-04-03T12:52:30.085Z,20.63